sensor_id;sensor_type;location;lat;lon;timestamp;pressure;altitude;pressure_sealevel;temperature;humidity
39954;BME280;25631;51.516;-0.470;2023-10-19T00:01:36;98332.81;;;12.41;49.27
39954;BME280;25631;51.516;-0.470;2023-10-19T00:04:13;98340.31;;;12.91;48.81
39954;BME280;25631;51.516;-0.470;2023-10-19T00:06:49;98342.50;;;12.75;48.42
39954;BME280;25631;51.516;-0.470;2023-10-19T00:09:26;98356.30;;;13.04;48.27
39954;BME280;25631;51.516;-0.470;2023-10-19T00:12:03;98367.70;;;12.82;48.35
39954;BME280;25631;51.516;-0.470;2023-10-19T00:14:39;98370.02;;;12.61;48.07
39954;BME280;25631;51.516;-0.470;2023-10-19T00:17:16;98366.00;;;12.60;47.74
39954;BME280;25631;51.516;-0.470;2023-10-19T00:19:52;98375.04;;;12.62;47.48
39954;BME280;25631;51.516;-0.470;2023-10-19T00:22:29;98389.51;;;12.60;47.16
39954;BME280;25631;51.516;-0.470;2023-10-19T00:25:06;98374.26;;;12.79;47.08
39954;BME280;25631;51.516;-0.470;2023-10-19T00:27:42;98370.47;;;12.73;46.73
39954;BME280;25631;51.516;-0.470;2023-10-19T00:30:18;98378.51;;;11.88;46.79
39954;BME280;25631;51.516;-0.470;2023-10-19T00:32:55;98372.32;;;12.11;46.34
39954;BME280;25631;51.516;-0.470;2023-10-19T00:35:33;98377.67;;;12.37;46.09
39954;BME280;25631;51.516;-0.470;2023-10-19T00:38:10;98375.68;;;12.19;45.97
39954;BME280;25631;51.516;-0.470;2023-10-19T00:40:50;98371.37;;;12.62;45.96
39954;BME280;25631;51.516;-0.470;2023-10-19T00:43:28;98373.29;;;12.37;46.27
39954;BME280;25631;51.516;-0.470;2023-10-19T00:46:05;98372.12;;;12.34;46.37
39954;BME280;25631;51.516;-0.470;2023-10-19T00:48:46;98385.75;;;12.22;46.70
39954;BME280;25631;51.516;-0.470;2023-10-19T00:51:25;98381.24;;;12.52;46.49
39954;BME280;25631;51.516;-0.470;2023-10-19T00:54:05;98389.26;;;12.75;46.55
39954;BME280;25631;51.516;-0.470;2023-10-19T00:56:46;98392.73;;;12.45;46.95
39954;BME280;25631;51.516;-0.470;2023-10-19T00:59:23;98380.71;;;12.38;46.73
39954;BME280;25631;51.516;-0.470;2023-10-19T01:02:00;98377.01;;;12.68;46.63
39954;BME280;25631;51.516;-0.470;2023-10-19T01:04:36;98380.60;;;12.88;46.56
39954;BME280;25631;51.516;-0.470;2023-10-19T01:07:13;98384.10;;;12.83;46.60
39954;BME280;25631;51.516;-0.470;2023-10-19T01:09:49;98385.54;;;12.82;46.73
39954;BME280;25631;51.516;-0.470;2023-10-19T01:12:26;98391.12;;;13.00;46.64
39954;BME280;25631;51.516;-0.470;2023-10-19T01:15:07;98389.91;;;12.90;46.54
39954;BME280;25631;51.516;-0.470;2023-10-19T01:17:45;98384.43;;;12.81;46.62
39954;BME280;25631;51.516;-0.470;2023-10-19T01:20:22;98389.11;;;12.99;46.48
39954;BME280;25631;51.516;-0.470;2023-10-19T01:23:01;98392.47;;;13.21;46.47
39954;BME280;25631;51.516;-0.470;2023-10-19T01:25:46;98391.43;;;13.28;46.46
39954;BME280;25631;51.516;-0.470;2023-10-19T01:28:25;98386.70;;;13.05;46.48
39954;BME280;25631;51.516;-0.470;2023-10-19T01:31:02;98391.19;;;13.08;46.61
39954;BME280;25631;51.516;-0.470;2023-10-19T01:33:38;98394.24;;;13.23;46.58
39954;BME280;25631;51.516;-0.470;2023-10-19T01:36:15;98396.01;;;13.35;46.47
39954;BME280;25631;51.516;-0.470;2023-10-19T01:38:51;98392.96;;;13.34;46.62
39954;BME280;25631;51.516;-0.470;2023-10-19T01:41:28;98396.52;;;13.29;46.76
39954;BME280;25631;51.516;-0.470;2023-10-19T01:44:05;98393.50;;;13.39;47.05
39954;BME280;25631;51.516;-0.470;2023-10-19T01:46:42;98389.23;;;13.03;47.26
39954;BME280;25631;51.516;-0.470;2023-10-19T01:49:19;98385.88;;;13.23;47.03
39954;BME280;25631;51.516;-0.470;2023-10-19T01:51:55;98384.38;;;13.36;47.13
39954;BME280;25631;51.516;-0.470;2023-10-19T01:54:32;98381.06;;;13.28;47.17
39954;BME280;25631;51.516;-0.470;2023-10-19T01:57:09;98378.86;;;13.36;47.46
39954;BME280;25631;51.516;-0.470;2023-10-19T01:59:45;98375.90;;;13.42;47.41
39954;BME280;25631;51.516;-0.470;2023-10-19T02:02:21;98369.57;;;13.23;47.58
39954;BME280;25631;51.516;-0.470;2023-10-19T02:04:58;98361.79;;;13.13;47.53
39954;BME280;25631;51.516;-0.470;2023-10-19T02:07:34;98359.83;;;13.29;47.70
39954;BME280;25631;51.516;-0.470;2023-10-19T02:10:10;98356.29;;;13.43;47.69
39954;BME280;25631;51.516;-0.470;2023-10-19T02:12:47;98349.66;;;13.75;47.62
39954;BME280;25631;51.516;-0.470;2023-10-19T02:15:23;98343.92;;;13.26;47.69
39954;BME280;25631;51.516;-0.470;2023-10-19T02:18:00;98339.11;;;13.26;47.47
39954;BME280;25631;51.516;-0.470;2023-10-19T02:20:37;98332.72;;;13.42;47.28
39954;BME280;25631;51.516;-0.470;2023-10-19T02:23:13;98331.80;;;13.40;47.28
39954;BME280;25631;51.516;-0.470;2023-10-19T02:25:50;98326.60;;;13.73;47.37
39954;BME280;25631;51.516;-0.470;2023-10-19T02:28:26;98329.06;;;13.68;47.30
39954;BME280;25631;51.516;-0.470;2023-10-19T02:31:02;98318.60;;;13.45;47.23
39954;BME280;25631;51.516;-0.470;2023-10-19T02:33:39;98314.33;;;13.55;47.19
39954;BME280;25631;51.516;-0.470;2023-10-19T02:36:15;98305.87;;;13.67;47.22
39954;BME280;25631;51.516;-0.470;2023-10-19T02:38:52;98307.06;;;13.77;47.18
39954;BME280;25631;51.516;-0.470;2023-10-19T02:41:28;98308.89;;;13.77;47.11
39954;BME280;25631;51.516;-0.470;2023-10-19T02:44:08;98308.88;;;14.05;47.08
39954;BME280;25631;51.516;-0.470;2023-10-19T02:46:46;98304.67;;;13.82;47.20
39954;BME280;25631;51.516;-0.470;2023-10-19T02:49:22;98310.40;;;13.64;47.26
39954;BME280;25631;51.516;-0.470;2023-10-19T02:51:59;98310.32;;;13.75;47.37
39954;BME280;25631;51.516;-0.470;2023-10-19T02:54:35;98309.76;;;13.66;47.46
39954;BME280;25631;51.516;-0.470;2023-10-19T02:57:11;98302.21;;;13.99;47.42
39954;BME280;25631;51.516;-0.470;2023-10-19T02:59:48;98298.19;;;13.99;47.55
39954;BME280;25631;51.516;-0.470;2023-10-19T03:02:24;98298.14;;;13.95;47.54
39954;BME280;25631;51.516;-0.470;2023-10-19T03:05:00;98293.63;;;13.59;47.43
39954;BME280;25631;51.516;-0.470;2023-10-19T03:07:37;98293.30;;;14.16;47.44
39954;BME280;25631;51.516;-0.470;2023-10-19T03:10:13;98287.18;;;14.22;47.44
39954;BME280;25631;51.516;-0.470;2023-10-19T03:12:50;98282.68;;;14.05;47.52
39954;BME280;25631;51.516;-0.470;2023-10-19T03:15:26;98277.86;;;14.25;47.51
39954;BME280;25631;51.516;-0.470;2023-10-19T03:18:03;98269.51;;;14.42;47.41
39954;BME280;25631;51.516;-0.470;2023-10-19T03:20:39;98262.47;;;14.26;47.44
39954;BME280;25631;51.516;-0.470;2023-10-19T03:23:16;98263.01;;;14.20;47.42
39954;BME280;25631;51.516;-0.470;2023-10-19T03:25:54;98267.94;;;14.56;47.47
39954;BME280;25631;51.516;-0.470;2023-10-19T03:28:31;98265.73;;;14.67;47.51
39954;BME280;25631;51.516;-0.470;2023-10-19T03:31:08;98270.04;;;14.39;47.67
39954;BME280;25631;51.516;-0.470;2023-10-19T03:33:44;98267.74;;;14.43;47.84
39954;BME280;25631;51.516;-0.470;2023-10-19T03:36:22;98269.40;;;14.45;47.91
39954;BME280;25631;51.516;-0.470;2023-10-19T03:38:59;98272.37;;;14.16;48.16
39954;BME280;25631;51.516;-0.470;2023-10-19T03:41:36;98273.02;;;14.19;48.33
39954;BME280;25631;51.516;-0.470;2023-10-19T03:44:12;98264.44;;;14.28;48.46
39954;BME280;25631;51.516;-0.470;2023-10-19T03:46:49;98261.87;;;14.37;48.59
39954;BME280;25631;51.516;-0.470;2023-10-19T03:49:25;98262.30;;;14.12;48.65
39954;BME280;25631;51.516;-0.470;2023-10-19T03:52:02;98258.40;;;14.28;48.49
39954;BME280;25631;51.516;-0.470;2023-10-19T03:54:39;98257.53;;;14.24;48.51
39954;BME280;25631;51.516;-0.470;2023-10-19T03:57:19;98249.14;;;14.51;48.51
39954;BME280;25631;51.516;-0.470;2023-10-19T03:59:56;98247.13;;;14.54;48.56
39954;BME280;25631;51.516;-0.470;2023-10-19T04:02:32;98250.43;;;14.32;48.66
39954;BME280;25631;51.516;-0.470;2023-10-19T04:05:09;98250.53;;;14.34;48.61
39954;BME280;25631;51.516;-0.470;2023-10-19T04:07:45;98249.02;;;14.48;48.55
39954;BME280;25631;51.516;-0.470;2023-10-19T04:10:22;98251.07;;;14.35;48.64
39954;BME280;25631;51.516;-0.470;2023-10-19T04:12:59;98246.90;;;14.57;48.88
39954;BME280;25631;51.516;-0.470;2023-10-19T04:15:36;98244.44;;;13.92;48.96
39954;BME280;25631;51.516;-0.470;2023-10-19T04:18:13;98239.74;;;14.28;48.93
39954;BME280;25631;51.516;-0.470;2023-10-19T04:20:49;98236.90;;;14.48;48.81
39954;BME280;25631;51.516;-0.470;2023-10-19T04:23:27;98239.66;;;14.29;48.64
39954;BME280;25631;51.516;-0.470;2023-10-19T04:26:03;98235.50;;;14.60;48.67
39954;BME280;25631;51.516;-0.470;2023-10-19T04:28:40;98231.78;;;14.51;48.68
39954;BME280;25631;51.516;-0.470;2023-10-19T04:31:17;98235.96;;;14.35;48.68
39954;BME280;25631;51.516;-0.470;2023-10-19T04:33:53;98227.75;;;14.43;48.71
39954;BME280;25631;51.516;-0.470;2023-10-19T04:36:30;98224.73;;;14.34;48.78
39954;BME280;25631;51.516;-0.470;2023-10-19T04:39:06;98221.93;;;14.48;48.82
39954;BME280;25631;51.516;-0.470;2023-10-19T04:41:43;98222.09;;;14.42;49.09
39954;BME280;25631;51.516;-0.470;2023-10-19T04:44:19;98220.00;;;14.58;49.03
39954;BME280;25631;51.516;-0.470;2023-10-19T04:46:56;98214.54;;;14.23;49.15
39954;BME280;25631;51.516;-0.470;2023-10-19T04:49:32;98217.61;;;14.08;49.05
39954;BME280;25631;51.516;-0.470;2023-10-19T04:52:08;98216.06;;;14.18;49.09
39954;BME280;25631;51.516;-0.470;2023-10-19T04:54:45;98213.88;;;14.48;49.07
39954;BME280;25631;51.516;-0.470;2023-10-19T04:57:21;98208.99;;;14.71;49.08
39954;BME280;25631;51.516;-0.470;2023-10-19T04:59:58;98206.25;;;14.69;49.03
39954;BME280;25631;51.516;-0.470;2023-10-19T05:02:34;98206.31;;;14.67;49.16
39954;BME280;25631;51.516;-0.470;2023-10-19T05:05:10;98200.96;;;14.54;49.06
39954;BME280;25631;51.516;-0.470;2023-10-19T05:07:47;98196.37;;;14.55;49.10
39954;BME280;25631;51.516;-0.470;2023-10-19T05:10:23;98196.91;;;14.57;49.09
39954;BME280;25631;51.516;-0.470;2023-10-19T05:12:59;98196.91;;;14.56;49.18
39954;BME280;25631;51.516;-0.470;2023-10-19T05:15:36;98193.21;;;14.90;49.10
39954;BME280;25631;51.516;-0.470;2023-10-19T05:18:13;98192.81;;;14.41;49.22
39954;BME280;25631;51.516;-0.470;2023-10-19T05:20:50;98191.80;;;14.45;49.14
39954;BME280;25631;51.516;-0.470;2023-10-19T05:23:27;98189.35;;;14.51;49.24
39954;BME280;25631;51.516;-0.470;2023-10-19T05:26:04;98190.82;;;14.57;49.16
39954;BME280;25631;51.516;-0.470;2023-10-19T05:28:41;98193.45;;;14.62;49.11
39954;BME280;25631;51.516;-0.470;2023-10-19T05:31:18;98192.90;;;14.61;49.16
39954;BME280;25631;51.516;-0.470;2023-10-19T05:33:54;98195.83;;;14.30;49.33
39954;BME280;25631;51.516;-0.470;2023-10-19T05:36:31;98198.09;;;14.50;49.18
39954;BME280;25631;51.516;-0.470;2023-10-19T05:39:07;98195.15;;;14.61;49.33
39954;BME280;25631;51.516;-0.470;2023-10-19T05:41:43;98193.14;;;14.42;49.40
39954;BME280;25631;51.516;-0.470;2023-10-19T05:44:20;98190.39;;;14.61;49.40
39954;BME280;25631;51.516;-0.470;2023-10-19T05:46:56;98189.45;;;14.67;49.32
39954;BME280;25631;51.516;-0.470;2023-10-19T05:49:33;98189.21;;;14.22;49.33
39954;BME280;25631;51.516;-0.470;2023-10-19T05:52:09;98187.67;;;14.20;49.37
39954;BME280;25631;51.516;-0.470;2023-10-19T05:54:46;98185.83;;;14.24;49.08
39954;BME280;25631;51.516;-0.470;2023-10-19T05:57:22;98187.56;;;14.80;48.99
39954;BME280;25631;51.516;-0.470;2023-10-19T05:59:59;98185.68;;;14.86;49.01
39954;BME280;25631;51.516;-0.470;2023-10-19T06:02:35;98189.59;;;14.43;49.06
39954;BME280;25631;51.516;-0.470;2023-10-19T06:05:12;98183.64;;;14.39;49.04
39954;BME280;25631;51.516;-0.470;2023-10-19T06:07:50;98184.46;;;14.65;48.88
39954;BME280;25631;51.516;-0.470;2023-10-19T06:10:28;98185.10;;;14.66;48.79
39954;BME280;25631;51.516;-0.470;2023-10-19T06:13:04;98182.19;;;14.97;48.55
39954;BME280;25631;51.516;-0.470;2023-10-19T06:15:41;98187.42;;;14.62;48.44
39954;BME280;25631;51.516;-0.470;2023-10-19T06:18:17;98185.02;;;14.78;48.47
39954;BME280;25631;51.516;-0.470;2023-10-19T06:20:54;98189.27;;;14.69;48.39
39954;BME280;25631;51.516;-0.470;2023-10-19T06:23:30;98190.04;;;14.74;48.45
39954;BME280;25631;51.516;-0.470;2023-10-19T06:26:10;98191.42;;;14.80;48.48
39954;BME280;25631;51.516;-0.470;2023-10-19T06:28:46;98194.89;;;14.82;48.46
39954;BME280;25631;51.516;-0.470;2023-10-19T06:31:22;98196.90;;;14.79;48.45
39954;BME280;25631;51.516;-0.470;2023-10-19T06:33:59;98199.38;;;14.47;48.40
39954;BME280;25631;51.516;-0.470;2023-10-19T06:36:35;98198.28;;;14.42;48.39
39954;BME280;25631;51.516;-0.470;2023-10-19T06:39:12;98198.80;;;14.37;48.41
39954;BME280;25631;51.516;-0.470;2023-10-19T06:41:49;98199.19;;;14.55;48.37
39954;BME280;25631;51.516;-0.470;2023-10-19T06:44:25;98203.27;;;14.19;48.22
39954;BME280;25631;51.516;-0.470;2023-10-19T06:47:02;98202.59;;;14.81;48.21
39954;BME280;25631;51.516;-0.470;2023-10-19T06:49:38;98202.32;;;14.29;48.15
39954;BME280;25631;51.516;-0.470;2023-10-19T06:52:15;98203.02;;;14.59;48.07
39954;BME280;25631;51.516;-0.470;2023-10-19T06:54:51;98201.62;;;14.79;48.08
39954;BME280;25631;51.516;-0.470;2023-10-19T06:57:28;98202.31;;;14.68;48.00
39954;BME280;25631;51.516;-0.470;2023-10-19T07:00:05;98198.10;;;14.35;47.96
39954;BME280;25631;51.516;-0.470;2023-10-19T07:02:43;98202.71;;;14.61;47.97
39954;BME280;25631;51.516;-0.470;2023-10-19T07:05:20;98200.69;;;14.55;47.93
39954;BME280;25631;51.516;-0.470;2023-10-19T07:07:57;98202.08;;;14.68;47.78
39954;BME280;25631;51.516;-0.470;2023-10-19T07:10:34;98197.76;;;15.00;47.75
39954;BME280;25631;51.516;-0.470;2023-10-19T07:13:10;98200.73;;;14.90;47.76
39954;BME280;25631;51.516;-0.470;2023-10-19T07:15:47;98200.18;;;14.77;47.78
39954;BME280;25631;51.516;-0.470;2023-10-19T07:18:24;98199.76;;;14.88;47.81
39954;BME280;25631;51.516;-0.470;2023-10-19T07:21:01;98199.97;;;14.98;47.70
39954;BME280;25631;51.516;-0.470;2023-10-19T07:23:37;98198.61;;;14.97;47.86
39954;BME280;25631;51.516;-0.470;2023-10-19T07:26:14;98200.04;;;14.52;48.03
39954;BME280;25631;51.516;-0.470;2023-10-19T07:28:50;98199.97;;;14.98;48.19
39954;BME280;25631;51.516;-0.470;2023-10-19T07:31:27;98200.38;;;14.97;48.15
39954;BME280;25631;51.516;-0.470;2023-10-19T07:34:03;98206.31;;;14.97;48.09
39954;BME280;25631;51.516;-0.470;2023-10-19T07:36:39;98204.32;;;14.80;47.96
39954;BME280;25631;51.516;-0.470;2023-10-19T07:39:16;98204.61;;;15.01;47.81
39954;BME280;25631;51.516;-0.470;2023-10-19T07:41:52;98205.92;;;15.16;47.73
39954;BME280;25631;51.516;-0.470;2023-10-19T07:44:29;98208.52;;;15.15;47.63
39954;BME280;25631;51.516;-0.470;2023-10-19T07:47:05;98205.14;;;15.35;47.57
39954;BME280;25631;51.516;-0.470;2023-10-19T07:49:42;98206.38;;;15.35;47.54
39954;BME280;25631;51.516;-0.470;2023-10-19T07:52:18;98206.12;;;15.06;47.47
39954;BME280;25631;51.516;-0.470;2023-10-19T07:54:55;98202.95;;;15.32;47.47
39954;BME280;25631;51.516;-0.470;2023-10-19T07:57:31;98204.19;;;15.27;47.45
39954;BME280;25631;51.516;-0.470;2023-10-19T08:00:10;98203.40;;;15.40;47.51
39954;BME280;25631;51.516;-0.470;2023-10-19T08:02:47;98202.85;;;15.21;47.58
39954;BME280;25631;51.516;-0.470;2023-10-19T08:05:23;98199.48;;;15.32;47.50
39954;BME280;25631;51.516;-0.470;2023-10-19T08:08:00;98198.54;;;15.24;47.50
39954;BME280;25631;51.516;-0.470;2023-10-19T08:10:36;98198.22;;;15.22;47.52
39954;BME280;25631;51.516;-0.470;2023-10-19T08:13:12;98194.84;;;15.32;47.47
39954;BME280;25631;51.516;-0.470;2023-10-19T08:15:49;98193.41;;;15.44;47.49
39954;BME280;25631;51.516;-0.470;2023-10-19T08:18:25;98192.33;;;15.15;47.53
39954;BME280;25631;51.516;-0.470;2023-10-19T08:21:02;98189.11;;;15.27;47.71
39954;BME280;25631;51.516;-0.470;2023-10-19T08:23:39;98186.59;;;15.43;47.82
39954;BME280;25631;51.516;-0.470;2023-10-19T08:26:15;98184.69;;;15.33;47.83
39954;BME280;25631;51.516;-0.470;2023-10-19T08:28:51;98189.64;;;15.43;47.81
39954;BME280;25631;51.516;-0.470;2023-10-19T08:31:28;98190.26;;;15.26;47.89
39954;BME280;25631;51.516;-0.470;2023-10-19T08:34:04;98190.55;;;15.18;47.78
39954;BME280;25631;51.516;-0.470;2023-10-19T08:36:41;98190.48;;;15.30;47.89
39954;BME280;25631;51.516;-0.470;2023-10-19T08:39:17;98188.94;;;15.26;47.99
39954;BME280;25631;51.516;-0.470;2023-10-19T08:41:54;98189.20;;;15.13;47.94
39954;BME280;25631;51.516;-0.470;2023-10-19T08:44:31;98192.06;;;15.22;47.92
39954;BME280;25631;51.516;-0.470;2023-10-19T08:47:08;98195.43;;;15.24;47.95
39954;BME280;25631;51.516;-0.470;2023-10-19T08:49:45;98194.59;;;15.23;47.83
39954;BME280;25631;51.516;-0.470;2023-10-19T08:52:22;98196.35;;;15.32;47.70
39954;BME280;25631;51.516;-0.470;2023-10-19T08:55:00;98196.69;;;15.33;47.69
39954;BME280;25631;51.516;-0.470;2023-10-19T08:57:36;98195.38;;;15.24;47.92
39954;BME280;25631;51.516;-0.470;2023-10-19T09:00:14;98194.20;;;15.14;48.16
39954;BME280;25631;51.516;-0.470;2023-10-19T09:02:51;98194.99;;;15.28;48.16
39954;BME280;25631;51.516;-0.470;2023-10-19T09:05:28;98196.75;;;15.25;48.22
39954;BME280;25631;51.516;-0.470;2023-10-19T09:08:06;98200.91;;;15.38;48.22
39954;BME280;25631;51.516;-0.470;2023-10-19T09:10:43;98199.98;;;15.62;48.08
39954;BME280;25631;51.516;-0.470;2023-10-19T09:13:20;98200.45;;;15.57;47.96
39954;BME280;25631;51.516;-0.470;2023-10-19T09:16:04;98201.91;;;15.61;47.99
39954;BME280;25631;51.516;-0.470;2023-10-19T09:18:41;98199.91;;;15.59;47.95
39954;BME280;25631;51.516;-0.470;2023-10-19T09:21:19;98196.07;;;15.72;47.85
39954;BME280;25631;51.516;-0.470;2023-10-19T09:23:57;98199.52;;;15.85;47.78
39954;BME280;25631;51.516;-0.470;2023-10-19T09:26:33;98200.29;;;15.71;47.54
39954;BME280;25631;51.516;-0.470;2023-10-19T09:29:18;98203.57;;;15.95;47.63
39954;BME280;25631;51.516;-0.470;2023-10-19T09:31:55;98201.53;;;15.95;47.45
39954;BME280;25631;51.516;-0.470;2023-10-19T09:34:35;98199.05;;;15.44;47.29
39954;BME280;25631;51.516;-0.470;2023-10-19T09:37:12;98197.78;;;15.86;47.25
39954;BME280;25631;51.516;-0.470;2023-10-19T09:39:48;98198.23;;;15.97;47.19
39954;BME280;25631;51.516;-0.470;2023-10-19T09:42:26;98199.18;;;15.91;47.08
39954;BME280;25631;51.516;-0.470;2023-10-19T09:45:05;98198.36;;;15.99;47.03
39954;BME280;25631;51.516;-0.470;2023-10-19T09:47:49;98196.17;;;15.92;46.98
39954;BME280;25631;51.516;-0.470;2023-10-19T09:50:26;98194.26;;;15.70;47.04
39954;BME280;25631;51.516;-0.470;2023-10-19T09:53:04;98192.49;;;15.98;46.95
39954;BME280;25631;51.516;-0.470;2023-10-19T09:55:41;98191.79;;;16.02;46.95
39954;BME280;25631;51.516;-0.470;2023-10-19T09:58:24;98191.57;;;15.87;46.98
39954;BME280;25631;51.516;-0.470;2023-10-19T10:01:01;98192.33;;;16.07;47.03
39954;BME280;25631;51.516;-0.470;2023-10-19T10:03:42;98196.92;;;15.75;46.97
39954;BME280;25631;51.516;-0.470;2023-10-19T10:06:28;98188.23;;;15.92;46.99
39954;BME280;25631;51.516;-0.470;2023-10-19T10:09:05;98195.81;;;16.05;46.97
39954;BME280;25631;51.516;-0.470;2023-10-19T10:11:41;98198.54;;;16.27;47.02
39954;BME280;25631;51.516;-0.470;2023-10-19T10:14:22;98202.22;;;16.10;46.86
39954;BME280;25631;51.516;-0.470;2023-10-19T10:17:01;98205.30;;;15.73;46.97
39954;BME280;25631;51.516;-0.470;2023-10-19T10:19:37;98200.98;;;15.61;47.02
39954;BME280;25631;51.516;-0.470;2023-10-19T10:22:14;98205.60;;;15.87;46.96
39954;BME280;25631;51.516;-0.470;2023-10-19T10:24:54;98205.03;;;16.14;47.01
39954;BME280;25631;51.516;-0.470;2023-10-19T10:27:32;98208.16;;;16.18;47.21
39954;BME280;25631;51.516;-0.470;2023-10-19T10:30:09;98204.33;;;16.14;47.34
39954;BME280;25631;51.516;-0.470;2023-10-19T10:32:49;98203.09;;;15.87;47.19
39954;BME280;25631;51.516;-0.470;2023-10-19T10:35:58;98201.11;;;15.88;47.07
39954;BME280;25631;51.516;-0.470;2023-10-19T10:38:35;98196.60;;;16.24;46.95
39954;BME280;25631;51.516;-0.470;2023-10-19T10:41:12;98202.61;;;16.26;46.88
39954;BME280;25631;51.516;-0.470;2023-10-19T10:43:57;98201.22;;;16.35;46.80
39954;BME280;25631;51.516;-0.470;2023-10-19T10:46:34;98213.28;;;15.87;46.75
39954;BME280;25631;51.516;-0.470;2023-10-19T10:49:10;98215.40;;;16.07;46.71
39954;BME280;25631;51.516;-0.470;2023-10-19T10:51:47;98207.03;;;15.89;46.77
39954;BME280;25631;51.516;-0.470;2023-10-19T10:54:23;98201.51;;;15.75;46.81
39954;BME280;25631;51.516;-0.470;2023-10-19T10:57:00;98194.07;;;16.27;47.04
39954;BME280;25631;51.516;-0.470;2023-10-19T10:59:36;98194.54;;;16.01;47.27
39954;BME280;25631;51.516;-0.470;2023-10-19T11:02:20;98193.76;;;16.36;47.32
39954;BME280;25631;51.516;-0.470;2023-10-19T11:04:56;98196.18;;;16.08;47.44
39954;BME280;25631;51.516;-0.470;2023-10-19T11:07:33;98187.16;;;15.95;47.34
39954;BME280;25631;51.516;-0.470;2023-10-19T11:10:09;98184.91;;;16.31;47.49
39954;BME280;25631;51.516;-0.470;2023-10-19T11:12:47;98181.58;;;16.23;47.60
39954;BME280;25631;51.516;-0.470;2023-10-19T11:15:24;98182.24;;;16.02;47.48
39954;BME280;25631;51.516;-0.470;2023-10-19T11:18:01;98175.38;;;15.92;47.26
39954;BME280;25631;51.516;-0.470;2023-10-19T11:20:37;98176.14;;;16.19;47.17
39954;BME280;25631;51.516;-0.470;2023-10-19T11:23:14;98170.15;;;16.11;47.16
39954;BME280;25631;51.516;-0.470;2023-10-19T11:25:57;98171.45;;;16.13;47.13
39954;BME280;25631;51.516;-0.470;2023-10-19T11:28:34;98163.19;;;16.39;47.10
39954;BME280;25631;51.516;-0.470;2023-10-19T11:31:12;98163.24;;;16.29;46.57
39954;BME280;25631;51.516;-0.470;2023-10-19T11:33:50;98160.90;;;16.23;46.45
39954;BME280;25631;51.516;-0.470;2023-10-19T11:36:27;98157.65;;;16.05;46.42
39954;BME280;25631;51.516;-0.470;2023-10-19T11:39:03;98152.49;;;16.46;46.54
39954;BME280;25631;51.516;-0.470;2023-10-19T11:41:40;98149.15;;;16.75;46.70
39954;BME280;25631;51.516;-0.470;2023-10-19T11:44:17;98145.45;;;16.83;46.66
39954;BME280;25631;51.516;-0.470;2023-10-19T11:46:53;98140.56;;;16.52;46.37
39954;BME280;25631;51.516;-0.470;2023-10-19T11:49:30;98143.11;;;16.50;46.23
39954;BME280;25631;51.516;-0.470;2023-10-19T11:52:07;98143.18;;;16.50;46.02
39954;BME280;25631;51.516;-0.470;2023-10-19T11:54:43;98144.72;;;16.76;45.87
39954;BME280;25631;51.516;-0.470;2023-10-19T11:57:20;98140.05;;;16.69;45.82
39954;BME280;25631;51.516;-0.470;2023-10-19T11:59:56;98135.28;;;16.64;45.90
39954;BME280;25631;51.516;-0.470;2023-10-19T12:02:32;98135.88;;;16.64;45.65
39954;BME280;25631;51.516;-0.470;2023-10-19T12:05:09;98134.82;;;16.92;45.66
39954;BME280;25631;51.516;-0.470;2023-10-19T12:07:46;98128.37;;;17.10;45.32
39954;BME280;25631;51.516;-0.470;2023-10-19T12:10:22;98121.80;;;16.91;45.28
39954;BME280;25631;51.516;-0.470;2023-10-19T12:12:59;98113.24;;;16.75;45.19
39954;BME280;25631;51.516;-0.470;2023-10-19T12:15:35;98119.30;;;16.79;45.32
39954;BME280;25631;51.516;-0.470;2023-10-19T12:18:12;98126.97;;;16.53;45.51
39954;BME280;25631;51.516;-0.470;2023-10-19T12:20:49;98127.67;;;16.40;45.48
39954;BME280;25631;51.516;-0.470;2023-10-19T12:23:25;98120.11;;;16.66;45.43
39954;BME280;25631;51.516;-0.470;2023-10-19T12:26:02;98125.44;;;17.04;45.51
39954;BME280;25631;51.516;-0.470;2023-10-19T12:28:39;98125.34;;;16.48;45.58
39954;BME280;25631;51.516;-0.470;2023-10-19T12:31:15;98122.99;;;17.19;45.62
39954;BME280;25631;51.516;-0.470;2023-10-19T12:33:52;98129.66;;;17.01;45.44
39954;BME280;25631;51.516;-0.470;2023-10-19T12:36:28;98120.42;;;16.74;45.44
39954;BME280;25631;51.516;-0.470;2023-10-19T12:39:05;98121.79;;;16.80;45.65
39954;BME280;25631;51.516;-0.470;2023-10-19T12:41:41;98120.54;;;16.87;46.10
39954;BME280;25631;51.516;-0.470;2023-10-19T12:44:17;98126.30;;;16.84;46.14
39954;BME280;25631;51.516;-0.470;2023-10-19T12:46:54;98119.30;;;16.60;46.25
39954;BME280;25631;51.516;-0.470;2023-10-19T12:49:30;98110.73;;;16.73;46.42
39954;BME280;25631;51.516;-0.470;2023-10-19T12:52:06;98091.36;;;16.88;47.34
39954;BME280;25631;51.516;-0.470;2023-10-19T12:54:43;98079.88;;;17.02;47.50
39954;BME280;25631;51.516;-0.470;2023-10-19T12:57:19;98076.41;;;17.07;47.92
39954;BME280;25631;51.516;-0.470;2023-10-19T12:59:56;98080.65;;;17.30;47.42
39954;BME280;25631;51.516;-0.470;2023-10-19T13:02:32;98071.95;;;17.61;46.96
39954;BME280;25631;51.516;-0.470;2023-10-19T13:05:09;98062.78;;;17.48;45.81
39954;BME280;25631;51.516;-0.470;2023-10-19T13:07:45;98063.20;;;17.56;45.58
39954;BME280;25631;51.516;-0.470;2023-10-19T13:10:22;98052.73;;;17.47;45.15
39954;BME280;25631;51.516;-0.470;2023-10-19T13:13:00;98058.32;;;17.79;44.79
39954;BME280;25631;51.516;-0.470;2023-10-19T13:15:38;98062.66;;;17.48;45.04
39954;BME280;25631;51.516;-0.470;2023-10-19T13:18:15;98062.83;;;17.51;44.55
39954;BME280;25631;51.516;-0.470;2023-10-19T13:20:51;98065.81;;;17.67;44.23
39954;BME280;25631;51.516;-0.470;2023-10-19T13:23:28;98066.31;;;17.77;44.28
39954;BME280;25631;51.516;-0.470;2023-10-19T13:26:04;98069.39;;;17.64;44.14
39954;BME280;25631;51.516;-0.470;2023-10-19T13:28:41;98068.12;;;17.68;43.81
39954;BME280;25631;51.516;-0.470;2023-10-19T13:31:17;98067.04;;;17.73;43.53
39954;BME280;25631;51.516;-0.470;2023-10-19T13:33:54;98067.57;;;17.49;43.35
39954;BME280;25631;51.516;-0.470;2023-10-19T13:36:30;98074.71;;;17.65;43.08
39954;BME280;25631;51.516;-0.470;2023-10-19T13:39:06;98083.24;;;17.39;43.30
39954;BME280;25631;51.516;-0.470;2023-10-19T13:41:43;98075.84;;;17.17;42.99